createdAt,value
2017-05-30T00:00:07.905Z,15.20
2017-05-30T00:02:35.637Z,15.30
2017-05-30T00:05:03.387Z,15.40
2017-05-30T00:07:31.150Z,15.60
2017-05-30T00:09:58.887Z,15.70
2017-05-30T00:12:26.650Z,15.70
2017-05-30T00:14:54.388Z,15.60
2017-05-30T00:17:22.149Z,15.50
2017-05-30T00:19:49.902Z,15.40
2017-05-30T00:22:17.911Z,15.40
2017-05-30T00:24:45.645Z,15.40
2017-05-30T00:27:13.378Z,15.40
2017-05-30T00:29:41.140Z,15.50
2017-05-30T00:32:08.887Z,15.60
2017-05-30T00:34:36.651Z,15.70
2017-05-30T00:37:04.385Z,15.80
2017-05-30T00:39:32.167Z,15.80
2017-05-30T00:41:59.899Z,15.80
2017-05-30T00:44:27.632Z,15.80
2017-05-30T00:46:55.389Z,15.70
2017-05-30T00:49:23.129Z,15.70
2017-05-30T00:51:50.884Z,15.70
2017-05-30T00:54:18.620Z,15.80
2017-05-30T00:56:46.372Z,15.90
2017-05-30T00:59:14.112Z,15.90
2017-05-30T01:01:41.870Z,15.90
2017-05-30T01:04:09.600Z,16.00
2017-05-30T01:06:37.367Z,16.00
2017-05-30T01:09:05.096Z,16.00
2017-05-30T01:11:32.827Z,15.90
2017-05-30T01:14:00.584Z,15.90
2017-05-30T01:16:28.317Z,15.80
2017-05-30T01:18:56.087Z,15.70
2017-05-30T01:21:23.824Z,15.80
2017-05-30T01:23:51.554Z,15.60
2017-05-30T01:26:19.324Z,15.60
2017-05-30T01:28:47.106Z,15.50
2017-05-30T01:31:14.849Z,15.50
2017-05-30T01:33:42.604Z,15.50
2017-05-30T01:36:10.340Z,15.50
2017-05-30T01:38:38.118Z,15.60
2017-05-30T01:41:05.886Z,15.80
2017-05-30T01:43:33.643Z,15.70
2017-05-30T01:46:01.376Z,15.60
2017-05-30T01:48:29.178Z,15.50
2017-05-30T01:50:56.917Z,15.50
2017-05-30T01:53:24.655Z,15.50
2017-05-30T01:55:52.436Z,15.50
2017-05-30T01:58:20.173Z,15.50
2017-05-30T02:00:48.350Z,15.50
2017-05-30T02:03:16.076Z,15.50
2017-05-30T02:05:43.801Z,15.50
2017-05-30T02:08:11.562Z,15.40
2017-05-30T02:10:39.299Z,15.30
2017-05-30T02:13:07.069Z,15.30
2017-05-30T02:15:34.798Z,15.30
2017-05-30T02:18:02.985Z,15.50
2017-05-30T02:20:30.734Z,15.60
2017-05-30T02:22:58.469Z,15.70
2017-05-30T02:25:26.233Z,15.50
2017-05-30T02:27:53.964Z,15.40
2017-05-30T02:30:21.723Z,15.30
2017-05-30T02:32:49.456Z,15.20
2017-05-30T02:35:17.237Z,15.20
2017-05-30T02:37:44.980Z,15.20
2017-05-30T02:40:12.716Z,15.20
2017-05-30T02:42:40.480Z,15.10
2017-05-30T02:45:08.233Z,15.00
2017-05-30T02:47:35.996Z,15.00
2017-05-30T02:50:03.736Z,15.10
2017-05-30T02:52:31.500Z,15.10
2017-05-30T02:54:59.229Z,15.20
2017-05-30T02:57:27.002Z,15.30
2017-05-30T02:59:54.735Z,15.30
2017-05-30T03:02:22.468Z,15.40
2017-05-30T03:04:50.244Z,15.40
2017-05-30T03:07:17.972Z,15.60
2017-05-30T03:09:45.740Z,15.70
2017-05-30T03:12:13.472Z,15.80
2017-05-30T03:14:41.241Z,15.70
2017-05-30T03:17:08.975Z,15.70
2017-05-30T03:19:36.704Z,15.70
2017-05-30T03:22:04.481Z,15.70
2017-05-30T03:24:32.213Z,15.60
2017-05-30T03:26:59.964Z,15.70
2017-05-30T03:29:27.720Z,15.60
2017-05-30T03:31:55.457Z,15.50
2017-05-30T03:34:23.223Z,15.50
2017-05-30T03:36:50.957Z,15.60
2017-05-30T03:39:19.022Z,15.60
2017-05-30T03:41:46.753Z,15.80
2017-05-30T03:44:14.487Z,15.90
2017-05-30T03:46:42.252Z,16.00
2017-05-30T03:49:09.985Z,16.00
2017-05-30T03:51:37.751Z,16.00
2017-05-30T03:54:05.484Z,15.90
2017-05-30T03:56:33.264Z,15.90
2017-05-30T03:59:01.032Z,15.90
2017-05-30T04:01:28.764Z,16.20
2017-05-30T04:03:56.525Z,16.40
2017-05-30T04:06:24.265Z,16.70
2017-05-30T04:08:52.036Z,16.80
2017-05-30T04:11:20.124Z,16.90
2017-05-30T04:13:47.864Z,16.90
2017-05-30T04:16:15.592Z,16.90
2017-05-30T04:18:43.356Z,16.90
2017-05-30T04:21:11.825Z,17.10
2017-05-30T04:23:39.571Z,17.30
2017-05-30T04:26:08.200Z,17.30
2017-05-30T04:28:35.931Z,17.20
2017-05-30T04:31:03.696Z,17.20
2017-05-30T04:33:31.432Z,17.10
2017-05-30T04:35:59.178Z,17.10
2017-05-30T04:38:26.941Z,17.10
2017-05-30T04:40:54.668Z,17.20
2017-05-30T04:43:22.430Z,17.20
2017-05-30T04:45:50.164Z,17.20
2017-05-30T04:48:17.919Z,17.10
2017-05-30T04:50:45.658Z,16.90
2017-05-30T04:53:13.444Z,16.80
2017-05-30T04:55:41.200Z,16.70
2017-05-30T04:58:08.934Z,16.50
2017-05-30T05:00:36.707Z,16.40
2017-05-30T05:03:04.446Z,16.40
2017-05-30T05:05:32.205Z,16.30
2017-05-30T05:07:59.939Z,16.30
2017-05-30T05:10:27.720Z,16.20
2017-05-30T05:12:55.456Z,16.20
2017-05-30T05:15:23.204Z,16.10
2017-05-30T05:17:51.083Z,16.10
2017-05-30T05:20:18.837Z,16.10
2017-05-30T05:22:46.593Z,16.00
2017-05-30T05:25:14.336Z,16.00
2017-05-30T05:27:42.117Z,15.90
2017-05-30T05:30:09.872Z,15.90
2017-05-30T05:32:37.601Z,16.00
2017-05-30T05:35:05.376Z,16.10
2017-05-30T05:37:33.128Z,16.30
2017-05-30T05:40:00.896Z,16.40
2017-05-30T05:42:28.631Z,16.50
2017-05-30T05:44:56.677Z,16.60
2017-05-30T05:47:24.408Z,16.70
2017-05-30T05:49:52.141Z,16.80
2017-05-30T05:52:19.923Z,16.80
2017-05-30T05:54:47.704Z,16.90
2017-05-30T05:57:15.450Z,16.90
2017-05-30T05:59:43.212Z,16.90
2017-05-30T06:02:11.852Z,17.00
2017-05-30T06:04:39.621Z,17.10
2017-05-30T06:07:07.353Z,17.10
2017-05-30T06:09:35.118Z,17.10
2017-05-30T06:12:02.876Z,17.20
2017-05-30T06:14:30.612Z,17.20
2017-05-30T06:16:58.376Z,17.30
2017-05-30T06:19:25.346Z,17.30
2017-05-30T06:21:53.122Z,17.50
2017-05-30T06:24:20.882Z,17.60
2017-05-30T06:26:48.628Z,17.60
2017-05-30T06:29:16.393Z,17.60
2017-05-30T06:31:44.136Z,17.60
2017-05-30T06:34:11.936Z,17.70
2017-05-30T06:36:39.670Z,17.90
2017-05-30T06:39:07.431Z,18.00
2017-05-30T06:41:35.168Z,17.90
2017-05-30T06:44:02.947Z,17.90
2017-05-30T06:46:30.685Z,17.90
2017-05-30T06:48:58.440Z,18.00
2017-05-30T06:51:26.220Z,18.10
2017-05-30T06:53:53.957Z,17.90
2017-05-30T06:56:21.712Z,17.90
2017-05-30T06:58:49.443Z,17.90
2017-05-30T07:01:17.578Z,18.10
2017-05-30T07:03:45.318Z,18.40
2017-05-30T07:06:13.066Z,18.60
2017-05-30T07:08:40.836Z,18.80
2017-05-30T07:11:08.568Z,19.00
2017-05-30T07:13:36.324Z,19.00
2017-05-30T07:16:04.063Z,19.00
2017-05-30T07:18:31.852Z,19.00
2017-05-30T07:20:59.655Z,19.20
2017-05-30T07:23:27.522Z,19.40
2017-05-30T07:25:55.293Z,19.80
2017-05-30T07:28:23.033Z,19.80
2017-05-30T07:30:50.778Z,19.90
2017-05-30T07:33:18.541Z,20.10
2017-05-30T07:35:46.278Z,20.30
2017-05-30T07:38:14.042Z,20.50
2017-05-30T07:40:41.779Z,20.60
2017-05-30T07:43:09.560Z,20.70
2017-05-30T07:45:37.292Z,20.80
2017-05-30T07:48:05.028Z,21.10
2017-05-30T07:50:32.804Z,21.10
2017-05-30T07:53:00.548Z,21.40
2017-05-30T07:55:28.289Z,21.40
2017-05-30T07:57:56.054Z,21.50
2017-05-30T08:00:23.787Z,21.60
2017-05-30T08:02:51.547Z,21.50
2017-05-30T08:05:19.292Z,21.50
2017-05-30T08:07:47.064Z,21.50
2017-05-30T08:10:14.812Z,21.50
2017-05-30T08:12:42.569Z,21.40
2017-05-30T08:15:10.307Z,21.50
2017-05-30T08:17:38.041Z,21.60
2017-05-30T08:20:05.805Z,21.80
2017-05-30T08:22:33.541Z,21.90
2017-05-30T08:25:01.324Z,22.00
2017-05-30T08:27:29.059Z,22.10
2017-05-30T08:29:56.815Z,22.30
2017-05-30T08:32:24.596Z,22.50
2017-05-30T08:34:52.341Z,22.60
2017-05-30T08:37:20.105Z,22.60
2017-05-30T08:39:47.843Z,22.80
2017-05-30T08:42:15.606Z,23.00
2017-05-30T08:44:43.332Z,23.20
2017-05-30T08:47:11.064Z,23.40
2017-05-30T08:49:38.820Z,24.00
2017-05-30T08:52:06.563Z,24.20
2017-05-30T08:54:34.299Z,23.70
2017-05-30T08:57:02.057Z,24.00
2017-05-30T09:00:16.821Z,24.30
2017-05-30T09:02:45.217Z,24.60
2017-05-30T09:05:12.966Z,24.80
2017-05-30T09:07:40.724Z,25.30
2017-05-30T09:10:08.452Z,25.10
2017-05-30T09:12:36.271Z,25.10
2017-05-30T09:15:04.011Z,25.20
2017-05-30T09:17:31.750Z,25.40
2017-05-30T09:19:59.516Z,25.50
2017-05-30T09:22:27.250Z,25.00
2017-05-30T09:24:55.020Z,24.90
2017-05-30T09:27:22.752Z,24.80
2017-05-30T09:29:49.970Z,24.80
2017-05-30T09:32:17.697Z,24.90
2017-05-30T09:34:45.432Z,24.40
2017-05-30T09:37:13.193Z,24.40
2017-05-30T09:39:40.924Z,24.50
2017-05-30T09:42:08.682Z,24.40
2017-05-30T09:44:36.416Z,24.10
2017-05-30T09:47:04.200Z,24.20
2017-05-30T09:49:31.960Z,24.30
2017-05-30T09:51:59.705Z,24.40
2017-05-30T09:54:27.468Z,24.40
2017-05-30T09:56:55.200Z,24.70
2017-05-30T09:59:23.372Z,24.90
2017-05-30T10:01:51.104Z,25.10
2017-05-30T10:04:18.832Z,24.80
2017-05-30T10:06:46.585Z,25.20
2017-05-30T10:09:14.319Z,24.60
2017-05-30T10:11:42.104Z,24.20
2017-05-30T10:14:09.839Z,24.40
2017-05-30T10:16:37.603Z,24.60
2017-05-30T10:19:05.371Z,24.40
2017-05-30T10:21:33.113Z,24.60
2017-05-30T10:24:00.868Z,24.40
2017-05-30T10:26:28.609Z,24.30
2017-05-30T10:28:56.372Z,24.20
2017-05-30T10:31:24.100Z,24.50
2017-05-30T10:33:51.878Z,24.90
2017-05-30T10:36:19.604Z,24.80
2017-05-30T10:38:47.350Z,25.40
2017-05-30T10:41:15.116Z,24.80
2017-05-30T10:43:42.858Z,24.60
2017-05-30T10:46:10.626Z,24.00
2017-05-30T10:48:38.360Z,23.30
2017-05-30T10:51:06.135Z,23.70
2017-05-30T10:53:33.885Z,24.20
2017-05-30T10:56:01.608Z,24.40
2017-05-30T10:58:29.363Z,24.30
2017-05-30T11:00:57.106Z,24.20
2017-05-30T11:03:24.870Z,25.10
2017-05-30T11:05:52.653Z,24.60
2017-05-30T11:08:20.388Z,23.90
2017-05-30T11:10:48.164Z,23.70
2017-05-30T11:13:15.904Z,23.40
2017-05-30T11:15:43.694Z,23.20
2017-05-30T11:18:11.424Z,22.80
2017-05-30T11:20:39.168Z,22.70
2017-05-30T11:23:06.924Z,22.20
2017-05-30T11:25:34.699Z,22.10
2017-05-30T11:28:02.458Z,22.00
2017-05-30T11:30:30.212Z,21.90
2017-05-30T11:32:57.971Z,22.10
2017-05-30T11:35:25.703Z,22.40
2017-05-30T11:37:53.496Z,22.90
2017-05-30T11:40:21.231Z,22.60
2017-05-30T11:42:49.446Z,21.50
2017-05-30T11:45:17.181Z,21.00
2017-05-30T11:47:44.912Z,21.50
2017-05-30T11:50:12.673Z,21.90
2017-05-30T11:52:40.417Z,22.00
2017-05-30T11:55:08.183Z,22.50
2017-05-30T11:57:35.924Z,22.60
2017-05-30T12:00:03.773Z,22.90
2017-05-30T12:02:31.513Z,23.50
2017-05-30T12:04:59.260Z,23.30
2017-05-30T12:07:27.024Z,23.00
2017-05-30T12:09:54.753Z,22.90
2017-05-30T12:12:21.932Z,22.90
2017-05-30T12:14:49.664Z,22.90
2017-05-30T12:17:17.393Z,22.90
2017-05-30T12:19:45.159Z,23.30
2017-05-30T12:22:12.907Z,23.60
2017-05-30T12:24:40.668Z,23.60
2017-05-30T12:27:09.372Z,22.90
2017-05-30T12:29:37.141Z,22.70
2017-05-30T12:32:04.868Z,23.20
2017-05-30T12:34:32.605Z,23.70
2017-05-30T12:37:00.356Z,23.60
2017-05-30T12:39:28.089Z,23.50
2017-05-30T12:41:55.871Z,23.70
2017-05-30T12:44:23.620Z,23.50
2017-05-30T12:46:51.613Z,23.80
2017-05-30T12:49:19.345Z,23.80
2017-05-30T12:51:47.086Z,24.00
2017-05-30T12:54:14.845Z,23.50
2017-05-30T12:56:42.589Z,23.90
2017-05-30T12:59:10.372Z,23.80
2017-05-30T13:01:38.109Z,23.80
2017-05-30T13:04:05.880Z,24.00
2017-05-30T13:06:33.669Z,23.60
2017-05-30T13:09:01.408Z,23.20
2017-05-30T13:11:29.189Z,22.60
2017-05-30T13:13:56.924Z,22.40
2017-05-30T13:16:24.851Z,21.80
2017-05-30T13:18:52.612Z,21.80
2017-05-30T13:23:57.294Z,21.50
2017-05-30T13:26:25.027Z,21.60
2017-05-30T13:28:52.796Z,21.50
2017-05-30T13:31:20.569Z,21.70
2017-05-30T13:33:48.300Z,21.60
2017-05-30T13:36:16.062Z,21.70
2017-05-30T13:38:43.822Z,21.40
2017-05-30T13:41:11.584Z,21.30
2017-05-30T13:43:39.317Z,21.40
2017-05-30T13:46:07.092Z,21.80
2017-05-30T13:48:34.827Z,21.60
2017-05-30T13:51:02.581Z,21.70
2017-05-30T13:53:30.340Z,22.40
2017-05-30T13:55:58.125Z,22.40
2017-05-30T13:58:25.876Z,21.50
2017-05-30T14:00:53.604Z,20.90
2017-05-30T14:03:21.364Z,20.90
2017-05-30T14:05:49.098Z,20.60
2017-05-30T14:08:16.853Z,20.60
2017-05-30T14:10:45.613Z,20.80
2017-05-30T14:13:13.373Z,21.00
2017-05-30T14:15:41.099Z,21.30
2017-05-30T14:18:08.892Z,21.10
2017-05-30T14:20:36.625Z,20.80
2017-05-30T14:23:04.368Z,20.50
2017-05-30T14:25:32.124Z,20.00
2017-05-30T14:27:59.857Z,20.10
2017-05-30T14:30:27.645Z,20.20
2017-05-30T14:32:55.385Z,20.40
2017-05-30T14:35:23.123Z,20.20
2017-05-30T14:37:50.885Z,20.70
2017-05-30T14:40:18.629Z,20.80
2017-05-30T14:42:46.412Z,20.40
2017-05-30T14:45:14.144Z,20.20
2017-05-30T14:47:41.876Z,20.30
2017-05-30T14:50:09.637Z,20.20
2017-05-30T14:52:37.570Z,20.10
2017-05-30T14:55:05.351Z,19.80
2017-05-30T14:57:33.105Z,19.70
2017-05-30T15:00:00.863Z,19.90
2017-05-30T15:02:28.612Z,20.30
2017-05-30T15:04:56.526Z,20.70
2017-05-30T15:07:23.492Z,20.70
2017-05-30T15:09:51.228Z,20.00
2017-05-30T15:12:18.981Z,19.70
2017-05-30T15:14:46.729Z,19.80
2017-05-30T15:17:14.497Z,20.00
2017-05-30T15:19:42.237Z,20.10
2017-05-30T15:22:10.028Z,19.70
2017-05-30T15:24:37.760Z,19.40
2017-05-30T15:27:05.487Z,19.60
2017-05-30T15:29:33.617Z,19.70
2017-05-30T15:32:01.350Z,19.20
2017-05-30T15:34:29.105Z,19.20
2017-05-30T15:36:56.845Z,19.40
2017-05-30T15:39:24.621Z,19.70
2017-05-30T15:41:52.364Z,19.60
2017-05-30T15:44:20.133Z,19.90
2017-05-30T15:46:47.897Z,19.50
2017-05-30T15:49:15.633Z,18.90
2017-05-30T15:51:43.389Z,18.80
2017-05-30T15:54:11.169Z,19.10
2017-05-30T15:56:38.944Z,18.70
2017-05-30T15:59:06.679Z,18.80
2017-05-30T16:01:34.412Z,18.70
2017-05-30T16:04:02.515Z,18.40
2017-05-30T16:06:30.248Z,18.60
2017-05-30T16:08:58.169Z,18.90
2017-05-30T16:11:25.915Z,19.30
2017-05-30T16:13:53.654Z,19.10
2017-05-30T16:16:21.409Z,18.60
2017-05-30T16:18:49.151Z,18.40
2017-05-30T16:21:16.937Z,18.30
2017-05-30T16:23:44.665Z,18.20
2017-05-30T16:26:12.405Z,18.20
2017-05-30T16:28:40.188Z,18.10
2017-05-30T16:31:07.917Z,18.00
2017-05-30T16:33:35.784Z,18.20
2017-05-30T16:36:03.520Z,18.20
2017-05-30T16:38:31.273Z,18.10
2017-05-30T16:40:59.048Z,18.10
2017-05-30T16:43:26.809Z,18.20
2017-05-30T16:45:54.549Z,18.10
2017-05-30T16:48:22.320Z,17.90
2017-05-30T16:50:50.072Z,17.70
2017-05-30T16:53:17.818Z,17.70
2017-05-30T16:55:45.619Z,17.30
2017-05-30T16:58:13.348Z,17.10
2017-05-30T17:00:41.320Z,17.10
2017-05-30T17:03:09.076Z,17.10
2017-05-30T17:05:36.837Z,17.00
2017-05-30T17:08:04.606Z,16.90
2017-05-30T17:10:32.337Z,17.00
2017-05-30T17:13:00.092Z,17.00
2017-05-30T17:15:27.847Z,17.10
2017-05-30T17:17:55.616Z,17.00
2017-05-30T17:20:23.353Z,16.60
2017-05-30T17:22:51.140Z,16.50
2017-05-30T17:25:18.873Z,16.50
2017-05-30T17:27:46.604Z,16.40
2017-05-30T17:30:14.364Z,16.40
2017-05-30T17:32:42.422Z,16.30
2017-05-30T17:35:10.180Z,16.20
2017-05-30T17:37:37.950Z,16.20
2017-05-30T17:40:05.740Z,16.10
2017-05-30T17:42:33.472Z,16.20
2017-05-30T17:45:01.208Z,16.10
2017-05-30T17:47:29.008Z,16.00
2017-05-30T17:49:56.741Z,15.90
2017-05-30T17:52:24.496Z,15.90
2017-05-30T17:54:52.235Z,15.90
2017-05-30T17:57:19.996Z,15.90
2017-05-30T17:59:47.729Z,16.00
2017-05-30T18:02:15.536Z,16.10
2017-05-30T18:04:43.264Z,16.10
2017-05-30T18:07:12.634Z,16.20
2017-05-30T18:09:40.735Z,16.10
2017-05-30T18:12:08.488Z,16.10
2017-05-30T18:14:36.220Z,16.30
2017-05-30T18:17:03.989Z,16.40
2017-05-30T18:19:31.732Z,16.40
2017-05-30T18:21:59.492Z,16.30
2017-05-30T18:24:27.231Z,16.30
2017-05-30T18:26:55.009Z,16.20
2017-05-30T18:29:22.747Z,16.20
2017-05-30T18:31:50.480Z,16.10
2017-05-30T18:34:18.241Z,16.00
2017-05-30T18:36:45.976Z,16.00
2017-05-30T18:39:13.757Z,15.90
2017-05-30T18:41:41.677Z,15.80
2017-05-30T18:44:09.411Z,15.70
2017-05-30T18:46:37.141Z,15.60
2017-05-30T18:49:04.920Z,15.60
2017-05-30T18:51:32.653Z,15.70
2017-05-30T18:54:00.412Z,15.70
2017-05-30T18:56:28.168Z,15.80
2017-05-30T18:58:55.919Z,15.80
2017-05-30T19:01:23.677Z,15.80
2017-05-30T19:03:51.412Z,15.70
2017-05-30T19:06:19.172Z,15.70
2017-05-30T19:08:46.927Z,15.70
2017-05-30T19:11:14.700Z,15.70
2017-05-30T19:13:42.447Z,15.70
2017-05-30T19:16:10.230Z,15.60
2017-05-30T19:18:37.969Z,15.60
2017-05-30T19:21:05.757Z,15.60
2017-05-30T19:23:33.494Z,15.70
2017-05-30T19:26:01.232Z,15.70
2017-05-30T19:28:28.988Z,15.70
2017-05-30T19:30:56.722Z,15.80
2017-05-30T19:33:24.492Z,15.80
2017-05-30T19:35:52.233Z,15.80
2017-05-30T19:38:19.968Z,15.80
2017-05-30T19:40:47.736Z,15.80
2017-05-30T19:43:15.466Z,15.80
2017-05-30T19:45:43.244Z,15.70
2017-05-30T19:48:10.977Z,15.60
2017-05-30T19:50:38.737Z,15.60
2017-05-30T19:53:06.496Z,15.50
2017-05-30T19:55:34.240Z,15.50
2017-05-30T19:58:02.008Z,15.50
2017-05-30T20:00:29.749Z,15.50
2017-05-30T20:02:57.494Z,15.50
2017-05-30T20:05:25.249Z,15.50
2017-05-30T20:07:52.978Z,15.50
2017-05-30T20:10:20.742Z,15.50
2017-05-30T20:12:48.483Z,15.50
2017-05-30T20:15:16.237Z,15.50
2017-05-30T20:17:43.972Z,15.30
2017-05-30T20:20:12.768Z,15.50
2017-05-30T20:22:40.513Z,15.50
2017-05-30T20:25:09.172Z,15.50
2017-05-30T20:27:36.909Z,15.50
2017-05-30T20:30:04.647Z,15.30
2017-05-30T20:32:31.645Z,15.30
2017-05-30T20:34:59.372Z,15.30
2017-05-30T20:37:27.128Z,15.30
2017-05-30T20:39:54.088Z,15.20
2017-05-30T20:42:21.841Z,15.30
2017-05-30T20:44:49.575Z,15.40
2017-05-30T20:47:17.509Z,15.30
2017-05-30T20:49:45.280Z,15.30
2017-05-30T20:52:13.008Z,15.30
2017-05-30T20:54:40.765Z,15.30
2017-05-30T20:57:08.496Z,15.30
2017-05-30T20:59:36.268Z,15.30
2017-05-30T21:02:04.000Z,15.30
2017-05-30T21:04:31.736Z,15.30
2017-05-30T21:06:59.500Z,15.30
2017-05-30T21:09:27.232Z,15.30
2017-05-30T21:11:54.996Z,15.40
2017-05-30T21:14:22.725Z,15.40
2017-05-30T21:16:50.504Z,15.40
2017-05-30T21:19:18.276Z,15.30
2017-05-30T21:21:46.008Z,15.40
2017-05-30T21:24:13.765Z,15.40
2017-05-30T21:26:41.503Z,15.40
2017-05-30T21:29:09.267Z,15.30
2017-05-30T21:31:37.004Z,15.30
2017-05-30T21:34:04.785Z,15.40
2017-05-30T21:36:32.516Z,15.40
2017-05-30T21:39:00.256Z,15.40
2017-05-30T21:41:28.024Z,15.40
2017-05-30T21:43:55.769Z,15.40
2017-05-30T21:46:23.516Z,15.50
2017-05-30T21:48:51.256Z,15.50
2017-05-30T21:51:19.021Z,15.50
2017-05-30T21:53:46.764Z,15.40
2017-05-30T21:56:14.583Z,15.50
2017-05-30T21:58:42.319Z,15.50
2017-05-30T22:01:09.285Z,15.50
2017-05-30T22:03:37.056Z,15.50
2017-05-30T22:06:05.598Z,15.50
2017-05-30T22:08:33.388Z,15.50
2017-05-30T22:11:01.245Z,15.40
2017-05-30T22:13:29.380Z,15.30
2017-05-30T22:15:56.353Z,15.30
2017-05-30T22:18:24.088Z,15.20
2017-05-30T22:20:51.842Z,15.30
2017-05-30T22:23:19.574Z,15.30
2017-05-30T22:25:47.333Z,15.30
2017-05-30T22:28:15.068Z,15.40
2017-05-30T22:30:42.828Z,15.40
2017-05-30T22:33:10.575Z,15.40
2017-05-30T22:35:38.688Z,15.40
2017-05-30T22:38:06.421Z,15.40
2017-05-30T22:40:34.164Z,15.50
2017-05-30T22:43:01.923Z,15.50
2017-05-30T22:45:29.653Z,15.40
2017-05-30T22:47:57.417Z,15.50
2017-05-30T22:50:25.148Z,15.50
2017-05-30T22:52:52.920Z,15.50
2017-05-30T22:55:20.688Z,15.50
2017-05-30T22:57:48.428Z,15.50
2017-05-30T23:00:16.191Z,15.50
2017-05-30T23:02:43.932Z,15.50
2017-05-30T23:05:11.693Z,15.50
2017-05-30T23:07:39.426Z,15.50
2017-05-30T23:10:08.028Z,15.50
2017-05-30T23:12:35.779Z,15.50
2017-05-30T23:15:03.508Z,15.40
2017-05-30T23:17:31.268Z,15.40
2017-05-30T23:19:59.000Z,15.40
2017-05-30T23:22:26.756Z,15.40
2017-05-30T23:24:54.493Z,15.30
2017-05-30T23:27:22.278Z,15.30
2017-05-30T23:29:50.007Z,15.20
2017-05-30T23:32:17.743Z,15.10
2017-05-30T23:34:45.508Z,15.10
2017-05-30T23:37:13.241Z,15.10
2017-05-30T23:39:40.252Z,15.00
2017-05-30T23:42:08.572Z,15.00
2017-05-30T23:44:36.415Z,15.10
2017-05-30T23:47:04.201Z,15.00
2017-05-30T23:49:31.984Z,15.00
2017-05-30T23:51:59.804Z,14.90
2017-05-30T23:54:27.608Z,14.90
2017-05-30T23:56:55.429Z,14.80
2017-05-30T23:59:23.220Z,14.70
